Time;durP1;ratioP1;P1;durP2;ratioP2;P2;SDS_P1;SDS_P2;PMS_P1;PMS_P2;Temp;Humidity;BMP_temperature;BMP_pressure;BME280_temperature;BME280_humidity;BME280_pressure;Samples;Min_cycle;Max_cycle;Signal;HPM_P1;HPM_P2
2021/10/15 00:02:14;;;;;;;1.57;1.03;;;12.00;98.20;;;;;;4998316;28;20480;-78
2021/10/15 00:04:40;;;;;;;1.60;1.10;;;11.90;98.20;;;;;;5007582;28;20552;-77
2021/10/15 00:07:09;;;;;;;1.57;1.10;;;11.90;98.20;;;;;;5001403;28;20503;-78
2021/10/15 00:09:35;;;;;;;1.57;1.10;;;11.80;98.20;;;;;;5050592;22;20501;-78
2021/10/15 00:12:02;;;;;;;1.53;1.10;;;11.80;98.20;;;;;;5050573;28;20496;-79
2021/10/15 00:14:29;;;;;;;1.57;1.00;;;11.80;98.20;;;;;;5057034;28;20936;-80
2021/10/15 00:16:56;;;;;;;1.60;1.10;;;11.70;98.20;;;;;;5048215;28;20491;-80
2021/10/15 00:19:23;;;;;;;1.60;1.10;;;11.70;98.20;;;;;;5055367;28;20509;-79
2021/10/15 00:21:50;;;;;;;1.60;1.10;;;11.60;98.20;;;;;;5045490;28;20986;-79
2021/10/15 00:24:18;;;;;;;1.90;1.60;;;11.60;98.20;;;;;;5060141;28;20866;-80
2021/10/15 00:26:44;;;;;;;1.60;1.20;;;11.60;98.20;;;;;;5044809;28;20481;-79
2021/10/15 00:29:11;;;;;;;1.60;1.20;;;11.60;98.20;;;;;;5058326;28;20482;-79
2021/10/15 00:31:38;;;;;;;1.53;1.10;;;11.50;98.20;;;;;;5047955;28;20492;-79
2021/10/15 00:34:04;;;;;;;1.60;1.20;;;11.50;98.20;;;;;;5056903;28;20462;-79
2021/10/15 00:36:31;;;;;;;1.57;1.10;;;11.50;98.20;;;;;;5045267;28;20486;-80
2021/10/15 00:38:58;;;;;;;1.60;1.10;;;11.50;98.20;;;;;;5055038;28;21027;-79
2021/10/15 00:41:26;;;;;;;1.57;1.10;;;11.40;98.20;;;;;;5043554;28;20792;-80
2021/10/15 00:44:00;;;;;;;1.60;1.10;;;11.40;98.20;;;;;;5056660;28;20845;-79
2021/10/15 00:46:27;;;;;;;1.57;1.10;;;11.40;98.20;;;;;;5037413;28;20485;-79
2021/10/15 00:48:54;;;;;;;1.60;1.20;;;11.40;98.20;;;;;;5059676;28;20478;-80
2021/10/15 00:51:21;;;;;;;1.53;1.00;;;11.30;98.20;;;;;;5042918;28;20988;-80
2021/10/15 00:53:48;;;;;;;1.60;1.13;;;11.30;98.20;;;;;;5057065;28;20832;-80
2021/10/15 00:56:16;;;;;;;1.57;1.10;;;11.30;98.20;;;;;;5042241;28;20475;-79
2021/10/15 00:58:44;;;;;;;1.53;1.00;;;11.20;98.20;;;;;;5055411;28;20973;-79
2021/10/15 01:01:11;;;;;;;1.57;1.10;;;11.20;98.20;;;;;;5038120;28;20481;-80
2021/10/15 01:03:38;;;;;;;1.60;1.20;;;11.20;98.20;;;;;;5049265;28;20789;-79
2021/10/15 01:06:05;;;;;;;1.60;1.10;;;11.10;98.20;;;;;;5041228;28;21085;-79
2021/10/15 01:08:32;;;;;;;1.60;1.10;;;11.10;98.20;;;;;;5057022;28;20485;-79
2021/10/15 01:10:59;;;;;;;1.60;1.10;;;11.10;98.20;;;;;;5032599;28;20975;-80
2021/10/15 01:13:28;;;;;;;1.60;1.20;;;11.10;98.20;;;;;;5050921;28;20478;-79
2021/10/15 01:16:04;;;;;;;1.57;1.10;;;11.00;98.20;;;;;;5034336;28;20972;-80
2021/10/15 01:18:30;;;;;;;1.53;1.10;;;11.00;98.20;;;;;;5057159;28;20482;-79
2021/10/15 01:20:59;;;;;;;1.60;1.20;;;10.90;98.20;;;;;;5042258;28;20827;-79
2021/10/15 01:23:26;;;;;;;1.53;1.10;;;10.80;98.20;;;;;;5057109;28;20459;-79
2021/10/15 01:25:53;;;;;;;1.57;1.20;;;10.80;98.20;;;;;;5038734;28;20823;-80
2021/10/15 01:28:20;;;;;;;1.50;1.10;;;10.80;98.20;;;;;;5061383;28;20966;-79
2021/10/15 01:30:47;;;;;;;1.57;1.10;;;10.70;98.20;;;;;;5043168;28;20467;-79
2021/10/15 01:33:14;;;;;;;1.60;1.20;;;10.70;98.20;;;;;;5062869;28;20469;-79
2021/10/15 01:35:42;;;;;;;1.50;1.10;;;10.70;98.20;;;;;;5049649;28;20486;-79
2021/10/15 01:38:10;;;;;;;1.53;1.10;;;10.70;98.20;;;;;;5047745;28;20478;-79
2021/10/15 01:40:37;;;;;;;1.57;1.20;;;10.70;98.20;;;;;;5047887;28;20473;-79
2021/10/15 01:43:04;;;;;;;1.60;1.20;;;10.60;98.20;;;;;;5051439;28;20492;-79
2021/10/15 01:45:33;;;;;;;1.57;1.10;;;10.60;98.20;;;;;;5050980;28;20469;-79
2021/10/15 01:48:00;;;;;;;1.60;1.13;;;10.60;98.20;;;;;;5053497;28;20489;-79
2021/10/15 01:50:28;;;;;;;1.60;1.10;;;10.50;98.20;;;;;;5045113;28;20494;-79
2021/10/15 01:52:55;;;;;;;1.57;1.20;;;10.50;98.20;;;;;;5050792;28;20512;-80
2021/10/15 01:55:24;;;;;;;1.57;1.10;;;10.50;98.20;;;;;;5053336;28;20466;-79
2021/10/15 01:57:50;;;;;;;1.60;1.20;;;10.50;98.20;;;;;;5051077;28;20481;-79
2021/10/15 02:00:17;;;;;;;1.60;1.10;;;10.40;98.20;;;;;;5048870;28;20491;-79
2021/10/15 02:02:45;;;;;;;1.60;1.10;;;10.40;98.20;;;;;;5053107;28;20492;-79
2021/10/15 02:05:14;;;;;;;1.53;1.10;;;10.40;98.20;;;;;;5049819;28;20466;-79
2021/10/15 02:07:42;;;;;;;1.53;1.20;;;10.40;98.20;;;;;;5051374;28;20877;-79
2021/10/15 02:10:10;;;;;;;1.57;1.13;;;10.30;98.20;;;;;;5048774;28;20501;-79
2021/10/15 02:12:39;;;;;;;1.60;1.30;;;10.30;98.20;;;;;;5048397;28;21010;-78
2021/10/15 02:15:07;;;;;;;1.60;1.17;;;10.30;98.20;;;;;;5048079;28;20940;-79
2021/10/15 02:17:34;;;;;;;1.53;1.10;;;10.30;98.20;;;;;;5045601;28;20488;-79
2021/10/15 02:20:03;;;;;;;2.10;1.80;;;10.20;98.20;;;;;;5047445;28;20486;-80
2021/10/15 02:22:29;;;;;;;1.60;1.20;;;10.20;98.20;;;;;;5047654;28;20480;-79
2021/10/15 02:24:56;;;;;;;1.60;1.20;;;10.20;98.20;;;;;;5047281;28;20473;-79
2021/10/15 02:27:23;;;;;;;1.60;1.30;;;10.20;98.20;;;;;;5046976;28;20866;-79
2021/10/15 02:29:51;;;;;;;1.60;1.20;;;10.20;98.20;;;;;;5050523;28;20482;-79
2021/10/15 02:32:18;;;;;;;1.60;1.20;;;10.10;98.20;;;;;;5043740;28;20501;-79
2021/10/15 02:34:44;;;;;;;1.53;1.20;;;10.10;98.20;;;;;;5053485;28;20827;-79
2021/10/15 02:37:11;;;;;;;1.60;1.20;;;10.10;98.20;;;;;;5046923;28;20489;-79
2021/10/15 02:39:38;;;;;;;1.57;1.10;;;10.10;98.20;;;;;;5050027;28;20493;-79
2021/10/15 02:42:05;;;;;;;1.60;1.10;;;10.10;98.20;;;;;;5045159;28;20470;-79
2021/10/15 02:44:34;;;;;;;1.57;1.20;;;10.10;98.20;;;;;;5051924;28;20971;-79
2021/10/15 02:47:02;;;;;;;1.60;1.10;;;10.10;98.20;;;;;;5048164;28;20477;-79
2021/10/15 02:49:29;;;;;;;1.60;1.20;;;10.10;98.20;;;;;;5050203;28;20498;-79
2021/10/15 02:51:56;;;;;;;1.60;1.17;;;10.20;98.20;;;;;;5045940;28;20481;-80
2021/10/15 02:54:22;;;;;;;1.57;1.10;;;10.20;98.20;;;;;;5057470;28;20466;-79
2021/10/15 02:56:49;;;;;;;1.53;1.10;;;10.20;98.20;;;;;;5043131;28;20682;-79
2021/10/15 02:59:16;;;;;;;1.60;1.20;;;10.30;98.20;;;;;;5052676;28;20478;-79
2021/10/15 03:01:43;;;;;;;1.57;1.20;;;10.30;98.20;;;;;;5045104;28;20489;-80
2021/10/15 03:04:11;;;;;;;1.77;1.50;;;10.30;98.20;;;;;;5057518;28;20974;-80
2021/10/15 03:06:37;;;;;;;1.53;1.10;;;10.30;98.20;;;;;;5041596;28;21010;-79
2021/10/15 03:09:05;;;;;;;1.53;1.20;;;10.30;98.20;;;;;;5053908;28;20501;-80
2021/10/15 03:11:32;;;;;;;1.60;1.20;;;10.40;98.20;;;;;;5041377;28;20492;-77
2021/10/15 03:13:58;;;;;;;1.57;1.13;;;10.40;98.20;;;;;;5053365;28;20473;-79
2021/10/15 03:16:25;;;;;;;1.60;1.30;;;10.40;98.20;;;;;;5041846;28;20492;-79
2021/10/15 03:18:52;;;;;;;1.57;1.17;;;10.40;98.20;;;;;;5053485;28;20478;-79
2021/10/15 03:21:20;;;;;;;1.53;1.10;;;10.50;98.20;;;;;;5037906;28;20484;-80
2021/10/15 03:23:47;;;;;;;1.60;1.20;;;10.50;98.20;;;;;;5056226;28;21015;-79
2021/10/15 03:26:13;;;;;;;1.50;1.10;;;10.50;98.20;;;;;;5040415;28;20484;-79
2021/10/15 03:28:40;;;;;;;1.50;1.10;;;10.50;98.20;;;;;;5048655;28;20493;-79
2021/10/15 03:31:07;;;;;;;1.57;1.20;;;10.50;98.20;;;;;;5038175;28;21051;-79
2021/10/15 03:33:34;;;;;;;1.57;1.13;;;10.60;98.20;;;;;;5054807;28;20465;-79
2021/10/15 03:36:01;;;;;;;1.53;1.10;;;10.60;98.20;;;;;;5041437;28;20857;-80
2021/10/15 03:38:29;;;;;;;1.57;1.10;;;10.60;98.20;;;;;;5060330;28;20489;-80
2021/10/15 03:40:55;;;;;;;1.53;1.10;;;10.60;98.20;;;;;;5038661;28;20475;-80
2021/10/15 03:43:22;;;;;;;1.60;1.20;;;10.60;98.20;;;;;;5062968;28;21045;-79
2021/10/15 03:45:49;;;;;;;1.60;1.10;;;10.70;98.20;;;;;;5038461;28;20466;-79
2021/10/15 03:48:15;;;;;;;1.60;1.30;;;10.70;98.20;;;;;;5062221;28;20991;-79
2021/10/15 03:50:42;;;;;;;1.53;1.10;;;10.70;98.20;;;;;;5047143;28;20502;-79
2021/10/15 03:53:09;;;;;;;1.57;1.10;;;10.70;98.20;;;;;;5054861;28;20486;-79
2021/10/15 03:55:37;;;;;;;1.57;1.10;;;10.70;98.20;;;;;;5050223;28;20455;-79
2021/10/15 03:58:04;;;;;;;1.60;1.20;;;10.70;98.20;;;;;;5052117;28;20557;-79
2021/10/15 04:00:31;;;;;;;1.57;1.10;;;10.80;98.20;;;;;;5050475;28;20490;-79
2021/10/15 04:02:58;;;;;;;1.60;1.20;;;10.80;98.20;;;;;;5055440;28;20481;-79
2021/10/15 04:05:24;;;;;;;1.53;1.10;;;10.80;98.20;;;;;;5050960;28;20474;-80
2021/10/15 04:07:51;;;;;;;1.60;1.20;;;10.80;98.20;;;;;;5056371;28;20477;-79
2021/10/15 04:10:18;;;;;;;1.57;1.10;;;10.90;98.20;;;;;;5048647;28;20486;-79
2021/10/15 04:12:46;;;;;;;1.57;1.20;;;10.90;98.20;;;;;;5056064;28;20476;-80
2021/10/15 04:15:13;;;;;;;1.60;1.10;;;11.00;98.20;;;;;;5051848;28;20474;-79
2021/10/15 04:17:40;;;;;;;1.57;1.10;;;11.00;98.20;;;;;;5052170;28;20489;-80
2021/10/15 04:20:08;;;;;;;1.60;1.10;;;11.00;98.20;;;;;;5051482;28;20490;-79
2021/10/15 04:22:35;;;;;;;1.50;1.00;;;11.00;98.20;;;;;;5050061;28;20488;-79
2021/10/15 04:25:02;;;;;;;1.60;1.17;;;11.00;98.20;;;;;;5054047;28;20466;-80
2021/10/15 04:27:29;;;;;;;1.53;1.10;;;11.00;98.20;;;;;;5051949;28;20492;-79
2021/10/15 04:29:57;;;;;;;1.60;1.23;;;11.00;98.20;;;;;;5049351;28;21017;-79
2021/10/15 04:32:24;;;;;;;1.57;1.10;;;11.00;98.20;;;;;;5047603;28;20492;-79
2021/10/15 04:34:51;;;;;;;1.57;1.10;;;11.00;98.20;;;;;;5053562;28;20858;-79
2021/10/15 04:37:17;;;;;;;1.60;1.10;;;11.00;98.20;;;;;;5048271;28;20482;-79
2021/10/15 04:39:44;;;;;;;1.50;1.10;;;11.00;98.20;;;;;;5055454;28;20490;-79
2021/10/15 04:42:11;;;;;;;1.60;1.20;;;11.00;98.20;;;;;;5045367;28;20880;-79
2021/10/15 04:44:38;;;;;;;1.57;1.10;;;11.00;98.20;;;;;;5047908;28;20471;-79
2021/10/15 04:47:06;;;;;;;1.60;1.10;;;11.10;98.20;;;;;;5046237;28;20486;-79
2021/10/15 04:49:33;;;;;;;1.57;1.10;;;11.10;98.20;;;;;;5055392;28;20629;-79
2021/10/15 04:52:00;;;;;;;1.53;1.10;;;11.10;98.20;;;;;;5047756;28;20483;-80
2021/10/15 04:54:27;;;;;;;1.57;1.10;;;11.10;98.20;;;;;;5051201;28;20466;-79
2021/10/15 04:56:54;;;;;;;1.57;1.10;;;11.10;98.20;;;;;;5047104;28;21232;-80
2021/10/15 04:59:21;;;;;;;1.60;1.10;;;11.10;98.20;;;;;;5058555;28;21112;-79
2021/10/15 05:01:48;;;;;;;1.53;1.10;;;11.20;98.20;;;;;;5045663;28;20477;-79
2021/10/15 05:04:16;;;;;;;1.60;1.10;;;11.20;98.20;;;;;;5056698;28;20822;-79
2021/10/15 05:06:43;;;;;;;1.53;1.10;;;11.20;98.20;;;;;;5043563;28;20481;-79
2021/10/15 05:09:26;;;;;;;1.60;1.20;;;11.20;98.20;;;;;;5057098;28;20494;-79
2021/10/15 05:11:54;;;;;;;1.53;1.10;;;11.30;98.20;;;;;;5042101;28;20513;-80
2021/10/15 05:14:21;;;;;;;1.57;1.10;;;11.30;98.20;;;;;;5056750;28;20466;-79
2021/10/15 05:16:48;;;;;;;1.50;1.10;;;11.30;98.20;;;;;;5050172;28;20570;-79
2021/10/15 05:19:16;;;;;;;1.60;1.10;;;11.30;98.20;;;;;;5056996;28;20484;-80
2021/10/15 05:21:43;;;;;;;1.60;1.20;;;11.30;98.20;;;;;;5045662;28;20573;-78
2021/10/15 05:24:09;;;;;;;1.53;1.00;;;11.40;98.20;;;;;;5058218;28;20797;-80
2021/10/15 05:26:36;;;;;;;1.53;1.00;;;11.40;98.20;;;;;;5042946;28;20867;-78
2021/10/15 05:29:03;;;;;;;1.53;1.20;;;11.40;98.20;;;;;;5056241;28;20505;-78
2021/10/15 05:31:30;;;;;;;1.57;1.10;;;11.40;98.20;;;;;;5042975;28;20846;-79
2021/10/15 05:33:57;;;;;;;1.57;1.00;;;11.40;98.20;;;;;;5060716;28;20462;-79
2021/10/15 05:36:25;;;;;;;1.60;1.10;;;11.40;98.20;;;;;;5046121;28;20488;-79
2021/10/15 05:38:53;;;;;;;1.50;1.00;;;11.40;98.20;;;;;;5060168;28;20577;-78
2021/10/15 05:41:20;;;;;;;1.60;1.20;;;11.40;98.20;;;;;;5044057;28;20486;-79
2021/10/15 05:43:47;;;;;;;1.60;1.10;;;11.40;98.20;;;;;;5059735;28;20462;-79
2021/10/15 05:46:13;;;;;;;1.57;1.10;;;11.50;98.20;;;;;;5043140;28;20495;-79
2021/10/15 05:48:40;;;;;;;1.60;1.10;;;11.50;98.20;;;;;;5062418;28;20478;-79
2021/10/15 05:51:07;;;;;;;1.53;1.10;;;11.50;98.20;;;;;;5041272;28;20487;-78
2021/10/15 05:53:35;;;;;;;1.53;1.10;;;11.50;98.20;;;;;;5062512;28;20559;-79
2021/10/15 05:56:24;;;;;;;1.60;1.10;;;11.50;98.20;;;;;;5046474;28;20930;-79
2021/10/15 05:58:50;;;;;;;1.50;1.00;;;11.50;98.20;;;;;;5058981;28;20563;-79
2021/10/15 06:01:19;;;;;;;1.50;1.10;;;11.50;98.20;;;;;;5040305;28;20936;-79
2021/10/15 06:03:51;;;;;;;1.57;1.10;;;11.50;98.20;;;;;;5058958;28;20462;-79
2021/10/15 06:14:54;;;;;;;1.57;1.10;;;11.50;98.20;;;;;;5048937;28;20669;-77
2021/10/15 06:17:21;;;;;;;1.53;1.10;;;11.50;98.20;;;;;;5064415;28;20481;-77
2021/10/15 06:19:52;;;;;;;1.57;1.10;;;11.50;98.20;;;;;;5061703;28;20565;-77
2021/10/15 06:22:19;;;;;;;1.57;1.10;;;11.60;98.20;;;;;;5041525;28;21066;-76
2021/10/15 06:24:49;;;;;;;1.50;1.10;;;11.60;98.20;;;;;;5046215;28;20473;-79
2021/10/15 06:27:17;;;;;;;1.60;1.20;;;11.60;98.20;;;;;;5041612;28;20485;-79
2021/10/15 06:29:44;;;;;;;1.50;1.10;;;11.60;98.20;;;;;;5047306;28;20504;-79
2021/10/15 06:32:10;;;;;;;1.50;1.07;;;11.60;98.20;;;;;;5048841;28;20481;-79
2021/10/15 06:34:37;;;;;;;1.50;1.00;;;11.70;98.20;;;;;;5053214;28;20458;-79
2021/10/15 06:37:04;;;;;;;1.60;1.10;;;11.70;98.20;;;;;;5043893;28;20485;-79
2021/10/15 06:39:31;;;;;;;1.60;1.10;;;11.70;98.20;;;;;;5051425;28;20506;-78
2021/10/15 06:41:59;;;;;;;1.60;1.10;;;11.80;98.20;;;;;;5042030;28;20485;-79
2021/10/15 06:44:26;;;;;;;1.57;1.10;;;11.80;98.20;;;;;;5045656;28;20971;-79
2021/10/15 06:46:53;;;;;;;1.60;1.10;;;11.80;98.20;;;;;;5039553;28;20478;-79
2021/10/15 06:49:20;;;;;;;1.57;1.10;;;11.80;98.20;;;;;;5052215;28;20551;-78
2021/10/15 06:51:47;;;;;;;1.50;1.07;;;11.80;98.20;;;;;;5040510;28;20489;-78
2021/10/15 06:54:14;;;;;;;1.53;1.00;;;11.90;98.20;;;;;;5053850;28;20547;-78
2021/10/15 06:56:41;;;;;;;1.50;1.10;;;11.90;98.20;;;;;;5045945;28;20520;-78
2021/10/15 06:59:09;;;;;;;1.50;1.10;;;11.90;98.20;;;;;;5054970;28;20490;-78
2021/10/15 07:01:36;;;;;;;1.57;1.03;;;11.90;98.20;;;;;;5032941;28;20497;-77
2021/10/15 07:04:03;;;;;;;1.50;1.00;;;11.90;98.20;;;;;;5050233;28;20466;-77
2021/10/15 07:06:30;;;;;;;1.53;1.00;;;11.90;98.20;;;;;;5039506;28;20536;-77
2021/10/15 07:08:57;;;;;;;1.57;1.10;;;12.00;98.20;;;;;;5052168;28;20504;-78
2021/10/15 07:11:24;;;;;;;1.53;1.10;;;12.00;98.20;;;;;;5038613;28;20767;-77
2021/10/15 07:13:51;;;;;;;1.53;1.00;;;12.00;98.20;;;;;;5048358;28;20464;-77
2021/10/15 07:16:19;;;;;;;1.57;1.03;;;12.00;98.20;;;;;;5038511;28;20484;-78
2021/10/15 07:18:46;;;;;;;1.50;1.00;;;12.10;98.20;;;;;;5053833;28;20505;-77
2021/10/15 07:21:12;;;;;;;1.50;1.07;;;12.10;98.20;;;;;;5040105;28;21906;-78
2021/10/15 07:23:39;;;;;;;1.57;1.10;;;12.20;98.20;;;;;;5057299;28;20478;-78
2021/10/15 07:26:06;;;;;;;1.57;1.00;;;12.20;98.20;;;;;;5036962;28;20522;-77
2021/10/15 07:28:33;;;;;;;1.53;1.10;;;12.30;98.20;;;;;;5054184;28;20867;-77
2021/10/15 07:31:00;;;;;;;1.53;1.00;;;12.30;98.20;;;;;;5037602;28;20931;-77
2021/10/15 07:33:28;;;;;;;1.57;1.00;;;12.30;98.20;;;;;;5057618;28;20470;-78
2021/10/15 07:35:55;;;;;;;1.53;1.10;;;12.40;98.20;;;;;;5036283;28;20466;-79
2021/10/15 07:38:22;;;;;;;1.50;1.00;;;12.50;98.20;;;;;;5056878;28;20505;-78
2021/10/15 07:40:49;;;;;;;1.57;1.00;;;12.50;98.20;;;;;;5033203;28;20768;-79
2021/10/15 07:43:16;;;;;;;1.60;1.03;;;12.60;98.20;;;;;;5058926;28;20485;-79
2021/10/15 07:45:43;;;;;;;1.50;1.00;;;12.60;98.20;;;;;;5039272;28;20496;-79
2021/10/15 07:48:09;;;;;;;1.57;1.00;;;12.70;98.20;;;;;;5048515;28;20567;-79
2021/10/15 07:50:38;;;;;;;1.60;1.10;;;12.70;98.20;;;;;;5045192;28;20462;-78
2021/10/15 07:53:04;;;;;;;1.50;1.00;;;12.80;98.20;;;;;;5049557;28;20481;-78
2021/10/15 07:55:31;;;;;;;1.53;1.10;;;12.80;98.20;;;;;;5047124;28;20470;-79
2021/10/15 07:57:58;;;;;;;1.87;1.67;;;12.80;98.20;;;;;;5051886;28;20488;-78
2021/10/15 08:00:25;;;;;;;1.57;1.10;;;12.80;98.20;;;;;;5045820;28;20485;-79
2021/10/15 08:02:53;;;;;;;1.57;1.00;;;12.90;98.20;;;;;;5047288;28;20489;-78
2021/10/15 08:05:20;;;;;;;1.50;1.00;;;12.90;98.20;;;;;;5046657;28;20477;-79
2021/10/15 08:07:48;;;;;;;1.53;1.00;;;12.90;98.20;;;;;;5049810;28;20491;-79
2021/10/15 08:10:15;;;;;;;1.60;1.10;;;13.00;98.20;;;;;;5042491;28;20605;-79
2021/10/15 08:12:42;;;;;;;1.57;1.00;;;13.00;98.20;;;;;;5051430;28;20484;-78
2021/10/15 08:15:11;;;;;;;1.53;1.00;;;13.00;98.20;;;;;;5045548;28;20461;-79
2021/10/15 08:17:38;;;;;;;1.60;1.10;;;13.00;98.20;;;;;;5049075;28;20491;-79
2021/10/15 08:20:06;;;;;;;1.50;1.00;;;13.00;98.20;;;;;;5045147;28;21020;-78
2021/10/15 08:22:33;;;;;;;1.53;1.10;;;13.10;98.20;;;;;;5046752;28;20595;-80
2021/10/15 08:25:01;;;;;;;1.53;1.00;;;13.10;98.20;;;;;;5045303;28;20822;-79
2021/10/15 08:27:28;;;;;;;1.60;1.17;;;13.10;98.20;;;;;;5045397;28;20493;-79
2021/10/15 08:29:54;;;;;;;1.57;1.00;;;13.10;98.20;;;;;;5045405;28;20500;-80
2021/10/15 08:32:21;;;;;;;1.57;1.00;;;13.20;98.20;;;;;;5043202;28;20492;-78
2021/10/15 08:34:48;;;;;;;1.53;1.00;;;13.20;98.20;;;;;;5049019;28;20488;-78
2021/10/15 08:37:14;;;;;;;1.57;1.00;;;13.20;98.20;;;;;;5045327;28;20477;-79
2021/10/15 08:39:41;;;;;;;1.53;1.00;;;13.20;98.20;;;;;;5048628;28;21064;-80
2021/10/15 08:42:10;;;;;;;1.53;1.00;;;13.20;98.20;;;;;;5045171;28;20919;-79
2021/10/15 08:44:41;;;;;;;1.50;1.00;;;13.30;98.20;;;;;;5051390;28;20466;-79
2021/10/15 08:47:08;;;;;;;1.57;1.00;;;13.30;98.20;;;;;;5050582;28;20530;-79
2021/10/15 08:49:36;;;;;;;1.50;1.00;;;13.40;98.20;;;;;;5049199;28;20577;-79
2021/10/15 08:52:02;;;;;;;1.57;1.10;;;13.40;98.20;;;;;;5046214;28;21316;-80
2021/10/15 08:54:32;;;;;;;1.60;1.07;;;13.50;98.20;;;;;;5055904;28;20469;-78
2021/10/15 08:57:01;;;;;;;1.57;0.97;;;13.50;98.20;;;;;;5044262;28;20488;-80
2021/10/15 08:59:41;;;;;;;1.53;1.00;;;13.50;98.20;;;;;;5052070;28;20531;-79
2021/10/15 09:02:13;;;;;;;1.50;1.00;;;13.60;98.20;;;;;;5039788;28;20571;-79
2021/10/15 09:04:49;;;;;;;1.57;0.90;;;13.70;98.20;;;;;;5048365;28;20550;-78
2021/10/15 09:07:16;;;;;;;1.53;1.00;;;13.70;98.20;;;;;;5036826;28;20491;-79
2021/10/15 09:09:44;;;;;;;1.57;1.00;;;13.80;98.20;;;;;;5049114;28;20532;-76
2021/10/15 09:12:13;;;;;;;1.50;1.00;;;13.90;98.20;;;;;;5050711;28;20584;-78
2021/10/15 09:14:42;;;;;;;1.50;1.00;;;14.00;98.20;;;;;;5043474;28;20462;-79
2021/10/15 09:17:10;;;;;;;1.57;1.00;;;14.00;98.20;;;;;;5041828;28;20567;-79
2021/10/15 09:19:42;;;;;;;1.60;1.00;;;14.00;98.20;;;;;;5043111;28;20548;-78
2021/10/15 09:22:15;;;;;;;1.50;1.10;;;14.00;98.20;;;;;;5041076;28;20489;-76
2021/10/15 09:24:44;;;;;;;1.57;1.00;;;14.10;98.20;;;;;;5060574;28;20466;-76
2021/10/15 09:27:34;;;;;;;1.57;1.00;;;14.10;98.20;;;;;;5040503;28;20493;-77
2021/10/15 09:30:05;;;;;;;1.50;1.00;;;14.10;98.20;;;;;;5042045;28;21054;-76
2021/10/15 09:33:19;;;;;;;1.60;1.10;;;14.10;98.20;;;;;;5046669;28;20513;-75
2021/10/15 09:36:05;;;;;;;1.50;1.00;;;14.00;98.20;;;;;;5044704;28;20470;-75
2021/10/15 09:38:32;;;;;;;1.50;1.00;;;13.90;98.20;;;;;;5024967;28;20902;-78
2021/10/15 09:40:58;;;;;;;1.57;1.00;;;13.80;98.20;;;;;;5036347;28;20462;-76
2021/10/15 09:43:33;;;;;;;1.50;1.00;;;13.70;98.20;;;;;;5050676;28;20466;-77
2021/10/15 09:46:02;;;;;;;1.57;1.00;;;13.60;98.20;;;;;;5030948;28;20511;-78
2021/10/15 09:48:31;;;;;;;1.57;1.00;;;13.60;98.20;;;;;;5046948;28;20463;-78
2021/10/15 09:51:16;;;;;;;1.57;0.90;;;13.50;98.20;;;;;;5031463;28;21012;-78
2021/10/15 09:54:03;;;;;;;1.53;1.00;;;13.50;98.20;;;;;;5054286;28;20561;-78
2021/10/15 09:56:40;;;;;;;1.53;1.00;;;13.50;98.20;;;;;;5037109;28;20489;-79
2021/10/15 09:59:08;;;;;;;1.53;1.00;;;13.50;98.20;;;;;;5047702;28;20501;-78
2021/10/15 10:01:37;;;;;;;1.50;0.90;;;13.60;98.20;;;;;;5035141;28;20883;-78
2021/10/15 10:04:06;;;;;;;1.53;1.00;;;13.70;98.20;;;;;;5049450;28;20462;-79
2021/10/15 10:06:33;;;;;;;1.57;0.90;;;13.80;98.20;;;;;;5032864;28;20485;-79
2021/10/15 10:09:01;;;;;;;1.53;1.00;;;13.90;98.20;;;;;;5046338;28;20503;-78
2021/10/15 10:11:28;;;;;;;1.53;1.00;;;14.00;98.20;;;;;;5030746;28;20481;-77
2021/10/15 10:13:55;;;;;;;1.50;1.00;;;14.00;98.20;;;;;;5047193;28;21073;-77
2021/10/15 10:16:32;;;;;;;1.57;1.00;;;14.10;98.20;;;;;;5028843;28;20584;-77
2021/10/15 10:19:03;;;;;;;1.53;1.00;;;14.20;98.20;;;;;;5046281;28;20486;-77
2021/10/15 10:21:33;;;;;;;1.50;1.00;;;14.30;98.20;;;;;;5026953;28;20857;-78
2021/10/15 10:24:05;;;;;;;1.50;1.00;;;14.40;98.20;;;;;;5048322;28;20495;-77
2021/10/15 10:26:44;;;;;;;1.50;1.00;;;14.40;98.20;;;;;;5031566;28;20489;-76
2021/10/15 10:29:11;;;;;;;1.50;0.97;;;14.30;98.20;;;;;;5050903;28;20486;-78
2021/10/15 10:31:37;;;;;;;1.53;1.00;;;14.40;98.20;;;;;;5029758;28;20584;-76
2021/10/15 10:34:07;;;;;;;1.53;0.90;;;14.30;98.20;;;;;;5048154;28;20467;-77
2021/10/15 10:36:37;;;;;;;3.50;3.23;;;14.30;98.20;;;;;;5036262;28;20485;-77
2021/10/15 10:39:28;;;;;;;1.57;1.10;;;14.20;98.20;;;;;;5044172;28;21189;-76
2021/10/15 10:42:02;;;;;;;1.60;1.00;;;14.20;98.20;;;;;;5033487;28;21105;-77
2021/10/15 10:44:29;;;;;;;1.50;1.00;;;14.10;98.20;;;;;;5037488;28;21033;-77
2021/10/15 10:47:15;;;;;;;1.53;0.90;;;14.10;98.20;;;;;;5039254;28;20568;-77
2021/10/15 10:50:05;;;;;;;1.50;1.00;;;14.00;98.20;;;;;;5044586;28;20527;-78
2021/10/15 10:52:32;;;;;;;1.57;1.10;;;14.00;98.20;;;;;;5044803;28;20488;-79
2021/10/15 10:55:03;;;;;;;1.50;0.90;;;13.90;98.20;;;;;;5045414;28;20502;-78
2021/10/15 10:57:31;;;;;;;3.20;1.40;;;13.90;98.20;;;;;;5039730;28;20821;-78
2021/10/15 11:00:20;;;;;;;1.53;1.00;;;13.80;98.20;;;;;;5045068;28;20502;-80
2021/10/15 11:02:50;;;;;;;1.57;1.00;;;13.60;98.20;;;;;;5048806;28;20577;-79
2021/10/15 11:05:39;;;;;;;1.50;1.00;;;13.60;98.20;;;;;;5039433;28;20458;-80
2021/10/15 11:08:31;;;;;;;1.57;1.00;;;13.60;98.20;;;;;;5047432;28;20504;-78
2021/10/15 11:11:43;;;;;;;1.53;1.00;;;13.60;98.20;;;;;;5034590;28;20468;-79
2021/10/15 11:14:36;;;;;;;1.57;1.00;;;13.60;98.20;;;;;;5050279;28;20466;-79
2021/10/15 11:17:09;;;;;;;1.53;1.00;;;13.60;98.20;;;;;;5043522;28;20487;-81
2021/10/15 11:19:36;;;;;;;1.50;1.00;;;13.50;98.20;;;;;;5052332;28;20493;-78
2021/10/15 11:22:04;;;;;;;1.50;1.00;;;13.40;98.20;;;;;;5042551;28;20477;-80
2021/10/15 11:24:31;;;;;;;1.53;1.00;;;13.40;98.20;;;;;;5051325;28;20476;-80
2021/10/15 11:26:58;;;;;;;1.53;1.00;;;13.40;98.20;;;;;;5040466;28;20473;-78
2021/10/15 11:29:25;;;;;;;1.57;0.90;;;13.40;98.20;;;;;;5046527;28;20858;-80
2021/10/15 11:31:55;;;;;;;1.57;1.00;;;13.50;98.20;;;;;;5041494;28;20883;-80
2021/10/15 11:34:23;;;;;;;1.53;1.10;;;13.60;98.20;;;;;;5052832;28;20476;-79
2021/10/15 11:37:04;;;;;;;1.50;1.00;;;13.60;98.20;;;;;;5039814;28;20474;-80
2021/10/15 11:39:31;;;;;;;1.50;0.90;;;13.70;98.20;;;;;;5046129;28;20521;-80
2021/10/15 11:41:57;;;;;;;1.50;1.00;;;13.80;98.20;;;;;;5041726;28;20484;-79
2021/10/15 11:44:35;;;;;;;1.57;1.00;;;13.90;98.20;;;;;;5047521;28;20857;-79
2021/10/15 11:47:05;;;;;;;1.60;1.00;;;14.10;98.20;;;;;;5036568;28;20576;-79
2021/10/15 11:49:37;;;;;;;1.60;1.00;;;14.20;98.20;;;;;;5047857;28;20494;-79
2021/10/15 11:52:05;;;;;;;1.50;0.90;;;14.40;98.20;;;;;;5031468;28;20485;-77
2021/10/15 11:54:32;;;;;;;1.50;0.93;;;14.40;98.20;;;;;;5043907;28;20489;-78
2021/10/15 11:57:00;;;;;;;1.60;1.10;;;14.50;98.20;;;;;;5042466;28;20489;-78
2021/10/15 11:59:27;;;;;;;1.57;1.00;;;14.50;98.20;;;;;;5054801;28;20489;-77
2021/10/15 12:01:53;;;;;;;1.50;1.10;;;14.50;98.20;;;;;;5039063;28;20905;-80
2021/10/15 12:04:20;;;;;;;1.60;1.00;;;14.50;98.20;;;;;;5047386;28;20470;-79
2021/10/15 12:06:48;;;;;;;1.53;1.00;;;14.60;98.20;;;;;;5039582;28;20571;-77
2021/10/15 12:09:19;;;;;;;1.60;1.00;;;14.70;98.20;;;;;;5052910;28;20489;-78
2021/10/15 12:11:51;;;;;;;1.53;1.00;;;14.70;98.20;;;;;;5043526;28;20979;-79
2021/10/15 12:14:22;;;;;;;1.50;1.00;;;14.80;98.20;;;;;;5053147;28;20466;-77
2021/10/15 12:16:54;;;;;;;1.50;0.90;;;14.90;98.20;;;;;;5057687;28;20477;-78
2021/10/15 12:19:25;;;;;;;1.57;0.90;;;14.80;98.20;;;;;;5055208;28;20489;-77
2021/10/15 12:22:01;;;;;;;1.57;1.00;;;14.90;98.20;;;;;;5058200;28;20474;-77
2021/10/15 12:24:32;;;;;;;1.50;0.90;;;14.90;98.20;;;;;;5068443;28;20458;-77
2021/10/15 12:27:17;;;;;;;1.60;1.03;;;14.90;98.20;;;;;;5060114;28;20572;-77
2021/10/15 12:29:46;;;;;;;2.17;1.97;;;14.90;98.20;;;;;;5073700;28;20507;-77
2021/10/15 12:32:16;;;;;;;1.50;0.90;;;15.00;98.20;;;;;;5058107;28;20473;-78
2021/10/15 12:35:16;;;;;;;1.53;0.97;;;15.10;98.20;;;;;;5057011;28;20455;-75
2021/10/15 12:37:55;;;;;;;1.50;1.00;;;15.20;98.20;;;;;;5065597;28;20769;-75
2021/10/15 12:40:30;;;;;;;1.53;1.00;;;15.30;98.20;;;;;;5063511;28;20478;-76
2021/10/15 12:43:10;;;;;;;1.57;1.00;;;15.40;98.20;;;;;;5070510;28;20508;-75
2021/10/15 12:45:39;;;;;;;1.50;1.00;;;15.50;98.20;;;;;;5061457;28;20466;-76
2021/10/15 12:48:09;;;;;;;1.57;0.90;;;15.50;98.20;;;;;;5073571;28;20761;-75
2021/10/15 12:50:39;;;;;;;1.50;1.00;;;15.60;98.20;;;;;;5067958;28;20463;-76
2021/10/15 12:53:15;;;;;;;1.53;1.00;;;15.60;98.20;;;;;;5067149;28;20483;-76
2021/10/15 12:55:53;;;;;;;1.60;1.00;;;15.70;98.20;;;;;;5063957;28;20459;-76
2021/10/15 12:58:21;;;;;;;1.60;1.00;;;15.70;97.00;;;;;;5052705;28;20479;-75
2021/10/15 13:00:49;;;;;;;1.57;1.00;;;15.80;97.00;;;;;;5054419;28;20561;-76
2021/10/15 13:03:26;;;;;;;1.53;0.90;;;15.90;96.90;;;;;;5080845;28;20618;-75
2021/10/15 13:06:00;;;;;;;1.53;1.00;;;15.90;98.20;;;;;;5057223;28;20454;-77
2021/10/15 13:11:20;;;;;;;1.53;1.00;;;15.90;96.00;;;;;;5052495;28;20739;-77